sensor_id;sensor_type;location;lat;lon;timestamp;temperature;humidity
25753;DHT22;13600;50.816;4.416;2023-05-10T00:01:04;14.50;99.90
25753;DHT22;13600;50.816;4.416;2023-05-10T00:03:29;14.60;99.90
25753;DHT22;13600;50.816;4.416;2023-05-10T00:05:55;14.60;99.90
25753;DHT22;13600;50.816;4.416;2023-05-10T00:08:20;14.60;99.90
25753;DHT22;13600;50.816;4.416;2023-05-10T00:10:46;14.70;99.90
25753;DHT22;13600;50.816;4.416;2023-05-10T00:13:11;14.80;99.90
25753;DHT22;13600;50.816;4.416;2023-05-10T00:15:37;14.80;99.90
25753;DHT22;13600;50.816;4.416;2023-05-10T00:18:03;14.80;99.90
25753;DHT22;13600;50.816;4.416;2023-05-10T00:20:28;14.90;99.90
25753;DHT22;13600;50.816;4.416;2023-05-10T00:22:54;15.00;99.90
25753;DHT22;13600;50.816;4.416;2023-05-10T00:25:20;14.90;99.90
25753;DHT22;13600;50.816;4.416;2023-05-10T00:27:47;14.90;99.90
25753;DHT22;13600;50.816;4.416;2023-05-10T00:30:12;14.90;99.90
25753;DHT22;13600;50.816;4.416;2023-05-10T00:32:38;14.90;99.90
25753;DHT22;13600;50.816;4.416;2023-05-10T00:35:03;14.90;99.90
25753;DHT22;13600;50.816;4.416;2023-05-10T00:37:29;15.00;99.90
25753;DHT22;13600;50.816;4.416;2023-05-10T00:39:55;14.90;99.90
25753;DHT22;13600;50.816;4.416;2023-05-10T00:42:20;14.90;99.90
25753;DHT22;13600;50.816;4.416;2023-05-10T00:44:46;14.90;99.90
25753;DHT22;13600;50.816;4.416;2023-05-10T00:47:12;14.90;99.90
25753;DHT22;13600;50.816;4.416;2023-05-10T00:49:38;14.90;99.90
25753;DHT22;13600;50.816;4.416;2023-05-10T00:52:03;14.90;99.90
25753;DHT22;13600;50.816;4.416;2023-05-10T00:54:29;14.90;99.90
25753;DHT22;13600;50.816;4.416;2023-05-10T00:56:55;14.90;99.90
25753;DHT22;13600;50.816;4.416;2023-05-10T00:59:22;15.00;99.90
25753;DHT22;13600;50.816;4.416;2023-05-10T01:01:47;14.90;99.90
25753;DHT22;13600;50.816;4.416;2023-05-10T01:04:13;15.00;99.90
25753;DHT22;13600;50.816;4.416;2023-05-10T01:06:42;14.90;99.90
25753;DHT22;13600;50.816;4.416;2023-05-10T01:09:08;15.00;99.90
25753;DHT22;13600;50.816;4.416;2023-05-10T01:11:36;15.00;99.90
25753;DHT22;13600;50.816;4.416;2023-05-10T01:14:03;15.00;99.90
25753;DHT22;13600;50.816;4.416;2023-05-10T01:16:32;15.00;99.90
25753;DHT22;13600;50.816;4.416;2023-05-10T01:18:58;15.00;99.90
25753;DHT22;13600;50.816;4.416;2023-05-10T01:21:38;15.10;99.90
25753;DHT22;13600;50.816;4.416;2023-05-10T01:31:56;15.00;99.90
25753;DHT22;13600;50.816;4.416;2023-05-10T01:34:25;15.00;99.90
25753;DHT22;13600;50.816;4.416;2023-05-10T01:36:58;14.90;99.90
25753;DHT22;13600;50.816;4.416;2023-05-10T01:39:39;14.90;99.90
25753;DHT22;13600;50.816;4.416;2023-05-10T01:42:08;14.80;99.90
25753;DHT22;13600;50.816;4.416;2023-05-10T01:44:37;14.90;99.90
25753;DHT22;13600;50.816;4.416;2023-05-10T01:47:05;14.90;99.90
25753;DHT22;13600;50.816;4.416;2023-05-10T01:49:34;15.00;99.90
25753;DHT22;13600;50.816;4.416;2023-05-10T01:52:04;15.00;99.90
25753;DHT22;13600;50.816;4.416;2023-05-10T01:54:31;15.00;99.90
25753;DHT22;13600;50.816;4.416;2023-05-10T01:57:02;15.00;99.90
25753;DHT22;13600;50.816;4.416;2023-05-10T01:59:34;14.90;99.90
25753;DHT22;13600;50.816;4.416;2023-05-10T02:02:04;14.90;99.90
25753;DHT22;13600;50.816;4.416;2023-05-10T02:04:31;14.80;99.90
25753;DHT22;13600;50.816;4.416;2023-05-10T02:06:57;14.90;99.90
25753;DHT22;13600;50.816;4.416;2023-05-10T02:09:22;14.90;99.90
25753;DHT22;13600;50.816;4.416;2023-05-10T02:11:49;15.00;99.90
25753;DHT22;13600;50.816;4.416;2023-05-10T02:14:15;15.00;99.90
25753;DHT22;13600;50.816;4.416;2023-05-10T02:16:42;14.90;99.90
25753;DHT22;13600;50.816;4.416;2023-05-10T02:19:08;15.00;99.90
25753;DHT22;13600;50.816;4.416;2023-05-10T02:21:34;15.20;99.90
25753;DHT22;13600;50.816;4.416;2023-05-10T02:24:01;15.00;99.90
25753;DHT22;13600;50.816;4.416;2023-05-10T02:26:27;14.80;99.90
25753;DHT22;13600;50.816;4.416;2023-05-10T02:28:53;14.80;99.90
25753;DHT22;13600;50.816;4.416;2023-05-10T02:31:19;14.70;99.90
25753;DHT22;13600;50.816;4.416;2023-05-10T02:33:44;14.60;99.90
25753;DHT22;13600;50.816;4.416;2023-05-10T02:36:11;14.60;99.90
25753;DHT22;13600;50.816;4.416;2023-05-10T02:38:38;14.50;99.90
25753;DHT22;13600;50.816;4.416;2023-05-10T02:41:04;14.60;99.90
25753;DHT22;13600;50.816;4.416;2023-05-10T02:43:31;14.40;99.90
25753;DHT22;13600;50.816;4.416;2023-05-10T02:45:57;14.30;99.90
25753;DHT22;13600;50.816;4.416;2023-05-10T02:48:23;14.30;99.90
25753;DHT22;13600;50.816;4.416;2023-05-10T02:50:49;14.40;99.90
25753;DHT22;13600;50.816;4.416;2023-05-10T02:53:18;14.50;99.90
25753;DHT22;13600;50.816;4.416;2023-05-10T02:55:47;14.50;99.90
25753;DHT22;13600;50.816;4.416;2023-05-10T02:58:14;14.50;99.90
25753;DHT22;13600;50.816;4.416;2023-05-10T03:00:39;14.50;99.90
25753;DHT22;13600;50.816;4.416;2023-05-10T03:03:05;14.50;99.90
25753;DHT22;13600;50.816;4.416;2023-05-10T03:05:31;14.40;99.90
25753;DHT22;13600;50.816;4.416;2023-05-10T03:07:58;14.40;99.90
25753;DHT22;13600;50.816;4.416;2023-05-10T03:10:27;14.50;99.90
25753;DHT22;13600;50.816;4.416;2023-05-10T03:16:06;14.30;99.90
25753;DHT22;13600;50.816;4.416;2023-05-10T03:21:04;14.40;99.90
25753;DHT22;13600;50.816;4.416;2023-05-10T03:23:40;14.40;99.90
25753;DHT22;13600;50.816;4.416;2023-05-10T03:26:06;14.30;99.90
25753;DHT22;13600;50.816;4.416;2023-05-10T03:28:33;14.20;99.90
25753;DHT22;13600;50.816;4.416;2023-05-10T03:30:59;14.20;99.90
25753;DHT22;13600;50.816;4.416;2023-05-10T03:33:25;14.10;99.90
25753;DHT22;13600;50.816;4.416;2023-05-10T03:35:50;14.10;99.90
25753;DHT22;13600;50.816;4.416;2023-05-10T03:38:16;14.10;99.90
25753;DHT22;13600;50.816;4.416;2023-05-10T03:40:41;14.00;99.90
25753;DHT22;13600;50.816;4.416;2023-05-10T03:43:07;14.00;99.90
25753;DHT22;13600;50.816;4.416;2023-05-10T03:45:33;14.00;99.90
25753;DHT22;13600;50.816;4.416;2023-05-10T03:47:58;13.90;99.90
25753;DHT22;13600;50.816;4.416;2023-05-10T03:50:24;14.00;99.90
25753;DHT22;13600;50.816;4.416;2023-05-10T03:52:49;14.00;99.90
25753;DHT22;13600;50.816;4.416;2023-05-10T03:55:15;13.90;99.90
25753;DHT22;13600;50.816;4.416;2023-05-10T03:57:41;13.90;99.90
25753;DHT22;13600;50.816;4.416;2023-05-10T04:00:08;14.00;99.90
25753;DHT22;13600;50.816;4.416;2023-05-10T04:02:34;13.90;99.90
25753;DHT22;13600;50.816;4.416;2023-05-10T04:04:59;13.90;99.90
25753;DHT22;13600;50.816;4.416;2023-05-10T04:07:25;14.10;99.90
25753;DHT22;13600;50.816;4.416;2023-05-10T04:09:50;14.10;99.90
25753;DHT22;13600;50.816;4.416;2023-05-10T04:12:16;14.10;99.90
25753;DHT22;13600;50.816;4.416;2023-05-10T04:14:42;14.10;99.90
25753;DHT22;13600;50.816;4.416;2023-05-10T04:17:07;14.10;99.90
25753;DHT22;13600;50.816;4.416;2023-05-10T04:19:33;14.10;99.90
25753;DHT22;13600;50.816;4.416;2023-05-10T04:21:58;14.10;99.90
25753;DHT22;13600;50.816;4.416;2023-05-10T04:24:24;14.00;99.90
25753;DHT22;13600;50.816;4.416;2023-05-10T04:26:50;14.00;99.90
25753;DHT22;13600;50.816;4.416;2023-05-10T04:29:16;14.10;99.90
25753;DHT22;13600;50.816;4.416;2023-05-10T04:31:41;14.20;99.90
25753;DHT22;13600;50.816;4.416;2023-05-10T04:34:07;14.30;99.90
25753;DHT22;13600;50.816;4.416;2023-05-10T04:36:32;14.40;99.90
25753;DHT22;13600;50.816;4.416;2023-05-10T04:39:00;14.40;99.90
25753;DHT22;13600;50.816;4.416;2023-05-10T04:41:26;14.30;99.90
25753;DHT22;13600;50.816;4.416;2023-05-10T04:43:51;14.30;99.90
25753;DHT22;13600;50.816;4.416;2023-05-10T04:46:17;14.20;99.90
25753;DHT22;13600;50.816;4.416;2023-05-10T04:48:43;14.30;99.90
25753;DHT22;13600;50.816;4.416;2023-05-10T04:51:08;14.40;99.90
25753;DHT22;13600;50.816;4.416;2023-05-10T04:53:34;14.50;99.90
25753;DHT22;13600;50.816;4.416;2023-05-10T04:55:59;14.50;99.90
25753;DHT22;13600;50.816;4.416;2023-05-10T04:58:25;14.60;99.90
25753;DHT22;13600;50.816;4.416;2023-05-10T05:00:50;14.50;99.90
25753;DHT22;13600;50.816;4.416;2023-05-10T05:03:16;14.50;99.90
25753;DHT22;13600;50.816;4.416;2023-05-10T05:05:41;14.40;99.90
25753;DHT22;13600;50.816;4.416;2023-05-10T05:08:07;14.40;99.90
25753;DHT22;13600;50.816;4.416;2023-05-10T05:10:32;14.40;99.90
25753;DHT22;13600;50.816;4.416;2023-05-10T05:12:58;14.40;99.90
25753;DHT22;13600;50.816;4.416;2023-05-10T05:15:23;14.30;99.90
25753;DHT22;13600;50.816;4.416;2023-05-10T05:17:49;14.30;99.90
25753;DHT22;13600;50.816;4.416;2023-05-10T05:20:14;14.10;99.90
25753;DHT22;13600;50.816;4.416;2023-05-10T05:22:40;14.00;99.90
25753;DHT22;13600;50.816;4.416;2023-05-10T05:25:06;14.00;99.90
25753;DHT22;13600;50.816;4.416;2023-05-10T05:27:31;14.10;99.90
25753;DHT22;13600;50.816;4.416;2023-05-10T05:29:57;14.10;99.90
25753;DHT22;13600;50.816;4.416;2023-05-10T05:32:23;14.10;99.90
25753;DHT22;13600;50.816;4.416;2023-05-10T05:34:49;14.10;99.90
25753;DHT22;13600;50.816;4.416;2023-05-10T05:37:15;14.00;99.90
25753;DHT22;13600;50.816;4.416;2023-05-10T05:39:41;13.90;99.90
25753;DHT22;13600;50.816;4.416;2023-05-10T05:42:08;13.80;99.90
25753;DHT22;13600;50.816;4.416;2023-05-10T05:44:33;13.70;99.90
25753;DHT22;13600;50.816;4.416;2023-05-10T05:46:59;13.80;99.90
25753;DHT22;13600;50.816;4.416;2023-05-10T05:49:25;13.90;99.90
25753;DHT22;13600;50.816;4.416;2023-05-10T05:51:50;13.90;99.90
25753;DHT22;13600;50.816;4.416;2023-05-10T05:54:16;13.90;99.90
25753;DHT22;13600;50.816;4.416;2023-05-10T05:56:41;13.90;99.90
25753;DHT22;13600;50.816;4.416;2023-05-10T05:59:07;13.90;99.90
25753;DHT22;13600;50.816;4.416;2023-05-10T06:01:33;13.90;99.90
25753;DHT22;13600;50.816;4.416;2023-05-10T06:03:58;13.90;99.90
25753;DHT22;13600;50.816;4.416;2023-05-10T06:06:24;13.90;99.90
25753;DHT22;13600;50.816;4.416;2023-05-10T06:08:49;13.90;99.90
25753;DHT22;13600;50.816;4.416;2023-05-10T06:11:15;13.90;99.90
25753;DHT22;13600;50.816;4.416;2023-05-10T06:13:41;13.80;99.90
25753;DHT22;13600;50.816;4.416;2023-05-10T06:16:07;13.90;99.90
25753;DHT22;13600;50.816;4.416;2023-05-10T06:18:33;14.10;99.90
25753;DHT22;13600;50.816;4.416;2023-05-10T06:20:58;13.80;99.90
25753;DHT22;13600;50.816;4.416;2023-05-10T06:23:24;13.60;99.90
25753;DHT22;13600;50.816;4.416;2023-05-10T06:25:51;13.50;99.90
25753;DHT22;13600;50.816;4.416;2023-05-10T06:28:16;13.60;99.90
25753;DHT22;13600;50.816;4.416;2023-05-10T06:30:42;13.60;99.90
25753;DHT22;13600;50.816;4.416;2023-05-10T06:33:07;13.60;99.90
25753;DHT22;13600;50.816;4.416;2023-05-10T06:35:33;13.70;99.90
25753;DHT22;13600;50.816;4.416;2023-05-10T06:37:59;13.70;99.90
25753;DHT22;13600;50.816;4.416;2023-05-10T06:40:24;13.70;99.90
25753;DHT22;13600;50.816;4.416;2023-05-10T06:42:50;13.80;99.90
25753;DHT22;13600;50.816;4.416;2023-05-10T06:45:15;13.90;99.90
25753;DHT22;13600;50.816;4.416;2023-05-10T06:47:41;13.70;99.90
25753;DHT22;13600;50.816;4.416;2023-05-10T06:50:07;13.70;99.90
25753;DHT22;13600;50.816;4.416;2023-05-10T06:52:33;13.70;99.90
25753;DHT22;13600;50.816;4.416;2023-05-10T06:54:59;13.70;99.90
25753;DHT22;13600;50.816;4.416;2023-05-10T06:57:25;13.70;99.90
25753;DHT22;13600;50.816;4.416;2023-05-10T06:59:51;13.70;99.90
25753;DHT22;13600;50.816;4.416;2023-05-10T07:02:17;13.60;99.90
25753;DHT22;13600;50.816;4.416;2023-05-10T07:04:43;13.50;99.90
25753;DHT22;13600;50.816;4.416;2023-05-10T07:07:08;13.60;99.90
25753;DHT22;13600;50.816;4.416;2023-05-10T07:09:34;13.50;99.90
25753;DHT22;13600;50.816;4.416;2023-05-10T07:11:59;13.40;99.90
25753;DHT22;13600;50.816;4.416;2023-05-10T07:14:27;13.50;99.90
25753;DHT22;13600;50.816;4.416;2023-05-10T07:16:53;13.50;99.90
25753;DHT22;13600;50.816;4.416;2023-05-10T07:19:18;13.60;99.90
25753;DHT22;13600;50.816;4.416;2023-05-10T07:21:44;13.70;99.90
25753;DHT22;13600;50.816;4.416;2023-05-10T07:24:10;13.80;99.90
25753;DHT22;13600;50.816;4.416;2023-05-10T07:26:35;13.90;99.90
25753;DHT22;13600;50.816;4.416;2023-05-10T07:29:01;13.90;99.90
25753;DHT22;13600;50.816;4.416;2023-05-10T07:31:27;13.80;99.90
25753;DHT22;13600;50.816;4.416;2023-05-10T07:33:53;13.90;99.90
25753;DHT22;13600;50.816;4.416;2023-05-10T07:36:18;13.80;99.90
25753;DHT22;13600;50.816;4.416;2023-05-10T07:38:44;13.80;99.90
25753;DHT22;13600;50.816;4.416;2023-05-10T07:43:35;13.80;99.90
25753;DHT22;13600;50.816;4.416;2023-05-10T07:46:01;13.80;99.90
25753;DHT22;13600;50.816;4.416;2023-05-10T07:48:27;13.80;99.90
25753;DHT22;13600;50.816;4.416;2023-05-10T07:50:52;13.80;99.90
25753;DHT22;13600;50.816;4.416;2023-05-10T07:53:18;13.80;99.90
25753;DHT22;13600;50.816;4.416;2023-05-10T07:55:44;13.90;99.90
25753;DHT22;13600;50.816;4.416;2023-05-10T07:58:10;14.00;99.90
25753;DHT22;13600;50.816;4.416;2023-05-10T08:00:35;13.80;99.90
25753;DHT22;13600;50.816;4.416;2023-05-10T08:03:04;13.90;99.90
25753;DHT22;13600;50.816;4.416;2023-05-10T08:05:30;14.10;99.90
25753;DHT22;13600;50.816;4.416;2023-05-10T08:07:55;14.00;99.90
25753;DHT22;13600;50.816;4.416;2023-05-10T08:10:21;14.10;99.90
25753;DHT22;13600;50.816;4.416;2023-05-10T08:12:46;14.20;99.90
25753;DHT22;13600;50.816;4.416;2023-05-10T08:15:12;14.30;99.90
25753;DHT22;13600;50.816;4.416;2023-05-10T08:17:37;14.40;99.90
25753;DHT22;13600;50.816;4.416;2023-05-10T08:20:03;14.40;99.90
25753;DHT22;13600;50.816;4.416;2023-05-10T08:22:29;14.50;99.90
25753;DHT22;13600;50.816;4.416;2023-05-10T08:24:54;14.70;99.90
25753;DHT22;13600;50.816;4.416;2023-05-10T08:27:20;14.90;99.90
25753;DHT22;13600;50.816;4.416;2023-05-10T08:29:45;15.00;99.90
25753;DHT22;13600;50.816;4.416;2023-05-10T08:32:11;15.00;99.90
25753;DHT22;13600;50.816;4.416;2023-05-10T08:34:36;15.10;99.90
25753;DHT22;13600;50.816;4.416;2023-05-10T08:37:02;15.00;99.90
25753;DHT22;13600;50.816;4.416;2023-05-10T08:39:27;15.00;99.90
25753;DHT22;13600;50.816;4.416;2023-05-10T08:41:53;15.00;99.90
25753;DHT22;13600;50.816;4.416;2023-05-10T08:44:19;15.00;99.90
25753;DHT22;13600;50.816;4.416;2023-05-10T08:46:46;15.00;99.90
25753;DHT22;13600;50.816;4.416;2023-05-10T08:49:16;15.10;99.90
25753;DHT22;13600;50.816;4.416;2023-05-10T08:51:44;15.30;99.90
25753;DHT22;13600;50.816;4.416;2023-05-10T08:54:12;15.20;99.90
25753;DHT22;13600;50.816;4.416;2023-05-10T08:56:38;15.10;99.90
25753;DHT22;13600;50.816;4.416;2023-05-10T08:59:04;15.30;99.90
25753;DHT22;13600;50.816;4.416;2023-05-10T09:01:30;15.30;99.90
25753;DHT22;13600;50.816;4.416;2023-05-10T09:03:56;15.20;99.90
25753;DHT22;13600;50.816;4.416;2023-05-10T09:06:23;14.90;99.90
25753;DHT22;13600;50.816;4.416;2023-05-10T09:08:49;14.80;99.90
25753;DHT22;13600;50.816;4.416;2023-05-10T09:11:14;14.90;99.90
25753;DHT22;13600;50.816;4.416;2023-05-10T09:13:41;14.80;99.90
25753;DHT22;13600;50.816;4.416;2023-05-10T09:16:07;14.70;99.90
25753;DHT22;13600;50.816;4.416;2023-05-10T09:18:32;14.70;99.90
25753;DHT22;13600;50.816;4.416;2023-05-10T09:20:58;14.70;99.90
25753;DHT22;13600;50.816;4.416;2023-05-10T09:23:23;14.60;99.90
25753;DHT22;13600;50.816;4.416;2023-05-10T09:26:03;14.60;99.90
25753;DHT22;13600;50.816;4.416;2023-05-10T09:28:33;14.60;99.90
25753;DHT22;13600;50.816;4.416;2023-05-10T09:30:59;14.60;99.90
25753;DHT22;13600;50.816;4.416;2023-05-10T09:33:24;14.60;99.90
25753;DHT22;13600;50.816;4.416;2023-05-10T09:35:51;14.80;99.90
25753;DHT22;13600;50.816;4.416;2023-05-10T09:38:17;14.90;99.90
25753;DHT22;13600;50.816;4.416;2023-05-10T09:40:42;14.80;99.90
25753;DHT22;13600;50.816;4.416;2023-05-10T09:43:19;14.70;99.90
25753;DHT22;13600;50.816;4.416;2023-05-10T09:45:48;14.60;99.90
25753;DHT22;13600;50.816;4.416;2023-05-10T09:48:14;14.60;99.90
25753;DHT22;13600;50.816;4.416;2023-05-10T09:50:40;14.60;99.90
25753;DHT22;13600;50.816;4.416;2023-05-10T09:53:07;14.70;99.90
25753;DHT22;13600;50.816;4.416;2023-05-10T09:58:01;14.80;99.90
25753;DHT22;13600;50.816;4.416;2023-05-10T10:00:27;14.80;99.90
25753;DHT22;13600;50.816;4.416;2023-05-10T10:02:57;14.70;99.90
25753;DHT22;13600;50.816;4.416;2023-05-10T10:05:30;14.50;99.90
25753;DHT22;13600;50.816;4.416;2023-05-10T10:07:59;14.50;99.90
25753;DHT22;13600;50.816;4.416;2023-05-10T10:10:25;14.60;99.90
25753;DHT22;13600;50.816;4.416;2023-05-10T10:12:52;14.70;99.90
25753;DHT22;13600;50.816;4.416;2023-05-10T10:15:17;14.70;99.90
25753;DHT22;13600;50.816;4.416;2023-05-10T10:17:43;14.70;99.90
25753;DHT22;13600;50.816;4.416;2023-05-10T10:20:09;14.90;99.90
25753;DHT22;13600;50.816;4.416;2023-05-10T10:22:36;14.90;99.90
25753;DHT22;13600;50.816;4.416;2023-05-10T10:25:02;14.90;99.90
25753;DHT22;13600;50.816;4.416;2023-05-10T10:32:53;14.80;99.90
25753;DHT22;13600;50.816;4.416;2023-05-10T10:35:23;15.00;99.90
25753;DHT22;13600;50.816;4.416;2023-05-10T10:37:50;15.10;99.90
25753;DHT22;13600;50.816;4.416;2023-05-10T10:40:31;15.10;99.90
25753;DHT22;13600;50.816;4.416;2023-05-10T10:42:57;15.20;99.90
25753;DHT22;13600;50.816;4.416;2023-05-10T10:45:24;15.30;99.90
25753;DHT22;13600;50.816;4.416;2023-05-10T10:50:43;15.70;99.90
25753;DHT22;13600;50.816;4.416;2023-05-10T10:53:12;15.90;99.90
25753;DHT22;13600;50.816;4.416;2023-05-10T10:55:45;15.90;99.90
25753;DHT22;13600;50.816;4.416;2023-05-10T10:58:12;16.10;99.90
25753;DHT22;13600;50.816;4.416;2023-05-10T11:00:59;16.10;99.90
25753;DHT22;13600;50.816;4.416;2023-05-10T11:03:34;16.10;99.90
25753;DHT22;13600;50.816;4.416;2023-05-10T11:05:59;16.10;99.90
25753;DHT22;13600;50.816;4.416;2023-05-10T11:08:34;16.30;99.90
25753;DHT22;13600;50.816;4.416;2023-05-10T11:13:39;16.40;99.90
25753;DHT22;13600;50.816;4.416;2023-05-10T11:16:15;16.80;99.90
25753;DHT22;13600;50.816;4.416;2023-05-10T11:18:41;16.60;99.90
25753;DHT22;13600;50.816;4.416;2023-05-10T11:21:16;16.70;99.90
25753;DHT22;13600;50.816;4.416;2023-05-10T11:26:10;17.10;99.90
25753;DHT22;13600;50.816;4.416;2023-05-10T11:28:46;17.10;99.90
25753;DHT22;13600;50.816;4.416;2023-05-10T11:31:18;17.00;99.90
25753;DHT22;13600;50.816;4.416;2023-05-10T11:36:55;16.90;99.90
25753;DHT22;13600;50.816;4.416;2023-05-10T11:39:02;17.10;99.90
25753;DHT22;13600;50.816;4.416;2023-05-10T11:41:28;17.20;99.90
25753;DHT22;13600;50.816;4.416;2023-05-10T11:43:55;17.20;99.90
25753;DHT22;13600;50.816;4.416;2023-05-10T11:46:21;17.60;99.90
25753;DHT22;13600;50.816;4.416;2023-05-10T11:48:51;17.80;99.90
25753;DHT22;13600;50.816;4.416;2023-05-10T11:51:23;18.10;99.90
25753;DHT22;13600;50.816;4.416;2023-05-10T11:53:50;18.30;99.90
25753;DHT22;13600;50.816;4.416;2023-05-10T11:56:16;18.50;99.90
25753;DHT22;13600;50.816;4.416;2023-05-10T11:58:41;18.50;99.90
25753;DHT22;13600;50.816;4.416;2023-05-10T12:01:07;18.40;99.90
25753;DHT22;13600;50.816;4.416;2023-05-10T12:03:34;18.30;99.90
25753;DHT22;13600;50.816;4.416;2023-05-10T12:06:00;18.10;99.90
25753;DHT22;13600;50.816;4.416;2023-05-10T12:08:27;18.20;99.90
25753;DHT22;13600;50.816;4.416;2023-05-10T12:10:53;18.00;99.90
25753;DHT22;13600;50.816;4.416;2023-05-10T12:13:19;17.80;99.90
25753;DHT22;13600;50.816;4.416;2023-05-10T12:15:45;18.20;99.90
25753;DHT22;13600;50.816;4.416;2023-05-10T12:18:12;18.40;99.90
25753;DHT22;13600;50.816;4.416;2023-05-10T12:20:38;18.50;99.90
25753;DHT22;13600;50.816;4.416;2023-05-10T12:23:04;18.70;99.90
25753;DHT22;13600;50.816;4.416;2023-05-10T12:25:31;18.90;99.90
25753;DHT22;13600;50.816;4.416;2023-05-10T12:27:58;19.10;99.90
25753;DHT22;13600;50.816;4.416;2023-05-10T12:30:26;19.30;99.90
25753;DHT22;13600;50.816;4.416;2023-05-10T12:32:52;19.30;99.90
25753;DHT22;13600;50.816;4.416;2023-05-10T12:35:18;19.30;99.90
25753;DHT22;13600;50.816;4.416;2023-05-10T12:37:48;19.40;99.90
25753;DHT22;13600;50.816;4.416;2023-05-10T12:40:14;19.60;99.90
25753;DHT22;13600;50.816;4.416;2023-05-10T12:42:40;19.80;99.90
25753;DHT22;13600;50.816;4.416;2023-05-10T12:45:06;19.80;99.90
25753;DHT22;13600;50.816;4.416;2023-05-10T12:47:32;19.50;99.90
25753;DHT22;13600;50.816;4.416;2023-05-10T12:49:58;19.10;99.90
25753;DHT22;13600;50.816;4.416;2023-05-10T12:52:24;18.90;99.90
25753;DHT22;13600;50.816;4.416;2023-05-10T12:54:50;18.50;99.90
25753;DHT22;13600;50.816;4.416;2023-05-10T12:57:15;18.50;99.90
25753;DHT22;13600;50.816;4.416;2023-05-10T12:59:41;18.40;99.90
25753;DHT22;13600;50.816;4.416;2023-05-10T13:02:06;18.60;99.90
25753;DHT22;13600;50.816;4.416;2023-05-10T13:04:32;18.60;99.90
25753;DHT22;13600;50.816;4.416;2023-05-10T13:06:58;18.90;99.90
25753;DHT22;13600;50.816;4.416;2023-05-10T13:09:24;19.30;99.90
25753;DHT22;13600;50.816;4.416;2023-05-10T13:11:50;19.60;99.90
25753;DHT22;13600;50.816;4.416;2023-05-10T13:14:16;19.70;99.90
25753;DHT22;13600;50.816;4.416;2023-05-10T13:16:41;19.70;99.90
25753;DHT22;13600;50.816;4.416;2023-05-10T13:19:07;19.70;99.90
25753;DHT22;13600;50.816;4.416;2023-05-10T13:21:33;19.50;99.90
25753;DHT22;13600;50.816;4.416;2023-05-10T13:23:58;19.70;99.90
25753;DHT22;13600;50.816;4.416;2023-05-10T13:26:25;19.80;99.90
25753;DHT22;13600;50.816;4.416;2023-05-10T13:28:50;20.10;99.90
25753;DHT22;13600;50.816;4.416;2023-05-10T13:31:16;20.20;99.90
25753;DHT22;13600;50.816;4.416;2023-05-10T13:33:42;20.00;99.90
25753;DHT22;13600;50.816;4.416;2023-05-10T13:36:08;20.10;99.90
25753;DHT22;13600;50.816;4.416;2023-05-10T13:38:33;20.00;99.90
25753;DHT22;13600;50.816;4.416;2023-05-10T13:40:59;20.10;99.90
25753;DHT22;13600;50.816;4.416;2023-05-10T13:43:24;19.90;99.90
25753;DHT22;13600;50.816;4.416;2023-05-10T13:45:50;19.90;99.90
25753;DHT22;13600;50.816;4.416;2023-05-10T13:48:15;19.80;99.90
25753;DHT22;13600;50.816;4.416;2023-05-10T13:50:41;19.70;99.90
25753;DHT22;13600;50.816;4.416;2023-05-10T13:53:06;19.70;99.90
25753;DHT22;13600;50.816;4.416;2023-05-10T13:55:32;19.60;99.90
25753;DHT22;13600;50.816;4.416;2023-05-10T13:57:58;19.70;99.90
25753;DHT22;13600;50.816;4.416;2023-05-10T14:00:23;19.90;99.90
25753;DHT22;13600;50.816;4.416;2023-05-10T14:02:49;20.20;99.90
25753;DHT22;13600;50.816;4.416;2023-05-10T14:05:14;20.40;99.90
25753;DHT22;13600;50.816;4.416;2023-05-10T14:07:40;20.40;99.90
25753;DHT22;13600;50.816;4.416;2023-05-10T14:10:07;20.60;99.90
25753;DHT22;13600;50.816;4.416;2023-05-10T14:12:33;20.30;99.90
25753;DHT22;13600;50.816;4.416;2023-05-10T14:14:58;20.30;99.90
25753;DHT22;13600;50.816;4.416;2023-05-10T14:17:24;20.10;99.90
25753;DHT22;13600;50.816;4.416;2023-05-10T14:19:49;20.00;99.90
25753;DHT22;13600;50.816;4.416;2023-05-10T14:22:15;19.80;99.90
25753;DHT22;13600;50.816;4.416;2023-05-10T14:24:40;19.60;99.90
25753;DHT22;13600;50.816;4.416;2023-05-10T14:27:06;19.50;99.90
25753;DHT22;13600;50.816;4.416;2023-05-10T14:29:32;19.40;99.90
25753;DHT22;13600;50.816;4.416;2023-05-10T14:31:59;19.10;99.90
25753;DHT22;13600;50.816;4.416;2023-05-10T14:34:25;18.90;99.90
25753;DHT22;13600;50.816;4.416;2023-05-10T14:36:51;18.70;99.90
25753;DHT22;13600;50.816;4.416;2023-05-10T14:39:16;18.80;99.90
25753;DHT22;13600;50.816;4.416;2023-05-10T14:41:42;18.80;99.90
25753;DHT22;13600;50.816;4.416;2023-05-10T14:44:09;18.80;99.90
25753;DHT22;13600;50.816;4.416;2023-05-10T14:46:35;18.80;99.90
25753;DHT22;13600;50.816;4.416;2023-05-10T14:49:01;18.60;99.90
25753;DHT22;13600;50.816;4.416;2023-05-10T14:51:26;18.50;99.90
25753;DHT22;13600;50.816;4.416;2023-05-10T14:53:52;18.30;99.90
25753;DHT22;13600;50.816;4.416;2023-05-10T14:56:17;18.40;99.90
25753;DHT22;13600;50.816;4.416;2023-05-10T14:58:43;18.10;99.90
25753;DHT22;13600;50.816;4.416;2023-05-10T15:01:08;18.00;99.90
25753;DHT22;13600;50.816;4.416;2023-05-10T15:03:34;18.10;99.90
25753;DHT22;13600;50.816;4.416;2023-05-10T15:05:59;18.20;99.90
25753;DHT22;13600;50.816;4.416;2023-05-10T15:08:25;18.40;99.90
25753;DHT22;13600;50.816;4.416;2023-05-10T15:10:51;18.40;99.90
25753;DHT22;13600;50.816;4.416;2023-05-10T15:13:16;18.10;99.90
25753;DHT22;13600;50.816;4.416;2023-05-10T15:15:42;18.00;99.90
25753;DHT22;13600;50.816;4.416;2023-05-10T15:18:08;18.00;99.90
25753;DHT22;13600;50.816;4.416;2023-05-10T15:20:34;18.10;99.90
25753;DHT22;13600;50.816;4.416;2023-05-10T15:23:00;18.20;99.90
25753;DHT22;13600;50.816;4.416;2023-05-10T15:25:26;18.30;99.90
25753;DHT22;13600;50.816;4.416;2023-05-10T15:27:51;18.40;99.90
25753;DHT22;13600;50.816;4.416;2023-05-10T15:30:17;18.40;99.90
25753;DHT22;13600;50.816;4.416;2023-05-10T15:32:42;18.40;99.90
25753;DHT22;13600;50.816;4.416;2023-05-10T15:35:08;18.50;99.90
25753;DHT22;13600;50.816;4.416;2023-05-10T15:37:35;18.40;99.90
25753;DHT22;13600;50.816;4.416;2023-05-10T15:40:01;18.50;99.90
25753;DHT22;13600;50.816;4.416;2023-05-10T15:42:31;18.60;99.90
25753;DHT22;13600;50.816;4.416;2023-05-10T15:44:57;18.60;99.90
25753;DHT22;13600;50.816;4.416;2023-05-10T15:47:23;18.50;99.90
25753;DHT22;13600;50.816;4.416;2023-05-10T15:49:49;18.70;99.90
25753;DHT22;13600;50.816;4.416;2023-05-10T15:52:14;18.80;99.90
25753;DHT22;13600;50.816;4.416;2023-05-10T15:54:40;18.70;99.90
25753;DHT22;13600;50.816;4.416;2023-05-10T15:57:06;18.80;99.90
25753;DHT22;13600;50.816;4.416;2023-05-10T15:59:32;18.90;99.90